sensor_id;sensor_type;location;lat;lon;timestamp;pressure;altitude;pressure_sealevel;temperature;humidity
61039;BME280;46919;45.816;3.104;2023-02-04T00:01:18;99668.78;;;5.01;76.08
61039;BME280;46919;45.816;3.104;2023-02-04T00:03:44;99674.00;;;5.03;75.91
61039;BME280;46919;45.816;3.104;2023-02-04T00:06:09;99666.09;;;5.01;76.07
61039;BME280;46919;45.816;3.104;2023-02-04T00:08:35;99662.72;;;4.99;76.59
61039;BME280;46919;45.816;3.104;2023-02-04T00:11:02;99661.03;;;4.98;76.56
61039;BME280;46919;45.816;3.104;2023-02-04T00:13:27;99660.19;;;4.98;76.82
61039;BME280;46919;45.816;3.104;2023-02-04T00:15:53;99664.41;;;5.00;76.35
61039;BME280;46919;45.816;3.104;2023-02-04T00:18:18;99664.41;;;5.00;76.70
61039;BME280;46919;45.816;3.104;2023-02-04T00:20:43;99668.34;;;4.96;76.98
61039;BME280;46919;45.816;3.104;2023-02-04T00:23:09;99663.16;;;4.95;77.27
61039;BME280;46919;45.816;3.104;2023-02-04T00:25:34;99660.19;;;4.98;77.15
61039;BME280;46919;45.816;3.104;2023-02-04T00:28:00;99664.69;;;4.97;77.31
61039;BME280;46919;45.816;3.104;2023-02-04T00:30:25;99663.00;;;4.96;77.62
61039;BME280;46919;45.816;3.104;2023-02-04T00:32:51;99654.13;;;4.96;77.49
61039;BME280;46919;45.816;3.104;2023-02-04T00:35:19;99656.91;;;5.04;77.03
61039;BME280;46919;45.816;3.104;2023-02-04T00:37:45;99654.09;;;5.05;77.28
61039;BME280;46919;45.816;3.104;2023-02-04T00:40:10;99651.56;;;5.04;76.96
61039;BME280;46919;45.816;3.104;2023-02-04T00:42:36;99652.56;;;5.03;76.93
61039;BME280;46919;45.816;3.104;2023-02-04T00:45:02;99647.91;;;5.05;77.17
61039;BME280;46919;45.816;3.104;2023-02-04T00:47:27;99650.56;;;5.05;77.19
61039;BME280;46919;45.816;3.104;2023-02-04T00:49:52;99649.16;;;5.01;77.27
61039;BME280;46919;45.816;3.104;2023-02-04T00:52:18;99642.44;;;4.97;77.96
61039;BME280;46919;45.816;3.104;2023-02-04T00:54:43;99646.09;;;4.96;78.31
61039;BME280;46919;45.816;3.104;2023-02-04T00:57:08;99638.75;;;4.98;78.01
61039;BME280;46919;45.816;3.104;2023-02-04T00:59:34;99636.78;;;5.00;77.95
61039;BME280;46919;45.816;3.104;2023-02-04T01:01:59;99639.03;;;5.04;77.78
61039;BME280;46919;45.816;3.104;2023-02-04T01:04:25;99644.63;;;5.11;77.34
61039;BME280;46919;45.816;3.104;2023-02-04T01:06:52;99638.97;;;5.14;77.30
61039;BME280;46919;45.816;3.104;2023-02-04T01:09:17;99634.91;;;5.10;77.60
61039;BME280;46919;45.816;3.104;2023-02-04T01:11:43;99630.84;;;5.06;78.10
61039;BME280;46919;45.816;3.104;2023-02-04T01:14:08;99634.78;;;5.02;78.68
61039;BME280;46919;45.816;3.104;2023-02-04T01:16:33;99632.69;;;4.96;79.19
61039;BME280;46919;45.816;3.104;2023-02-04T01:18:59;99625.19;;;4.99;79.13
61039;BME280;46919;45.816;3.104;2023-02-04T01:21:25;99628.59;;;5.01;79.05
61039;BME280;46919;45.816;3.104;2023-02-04T01:23:51;99634.78;;;5.02;79.56
61039;BME280;46919;45.816;3.104;2023-02-04T01:26:20;99634.09;;;5.00;79.44
61039;BME280;46919;45.816;3.104;2023-02-04T01:28:45;99624.66;;;4.96;80.08
61039;BME280;46919;45.816;3.104;2023-02-04T01:31:11;99624.94;;;4.93;80.54
61039;BME280;46919;45.816;3.104;2023-02-04T01:33:37;99639.03;;;4.95;80.40
61039;BME280;46919;45.816;3.104;2023-02-04T01:36:02;99637.34;;;4.94;80.38
61039;BME280;46919;45.816;3.104;2023-02-04T01:38:28;99632.00;;;4.94;80.64
61039;BME280;46919;45.816;3.104;2023-02-04T01:40:53;99631.13;;;4.93;81.05
61039;BME280;46919;45.816;3.104;2023-02-04T01:43:19;99625.22;;;4.89;81.45
61039;BME280;46919;45.816;3.104;2023-02-04T01:45:47;99619.88;;;4.89;81.20
61039;BME280;46919;45.816;3.104;2023-02-04T01:48:13;99617.47;;;4.86;81.25
61039;BME280;46919;45.816;3.104;2023-02-04T01:50:59;99618.50;;;4.85;81.61
61039;BME280;46919;45.816;3.104;2023-02-04T01:53:26;99623.13;;;4.83;81.63
61039;BME280;46919;45.816;3.104;2023-02-04T01:55:52;99614.25;;;4.83;82.08
61039;BME280;46919;45.816;3.104;2023-02-04T01:58:18;99623.28;;;4.82;82.14
61039;BME280;46919;45.816;3.104;2023-02-04T02:00:43;99617.09;;;4.81;82.41
61039;BME280;46919;45.816;3.104;2023-02-04T02:03:09;99616.25;;;4.81;82.35
61039;BME280;46919;45.816;3.104;2023-02-04T02:05:39;99626.97;;;4.81;82.57
61039;BME280;46919;45.816;3.104;2023-02-04T02:08:05;99603.84;;;4.80;82.94
61039;BME280;46919;45.816;3.104;2023-02-04T02:10:32;99611.88;;;4.80;83.00
61039;BME280;46919;45.816;3.104;2023-02-04T02:12:59;99598.47;;;4.80;82.85
61039;BME280;46919;45.816;3.104;2023-02-04T02:15:25;99607.19;;;4.82;83.25
61039;BME280;46919;45.816;3.104;2023-02-04T02:17:52;99599.47;;;4.79;83.28
61039;BME280;46919;45.816;3.104;2023-02-04T02:20:20;99605.53;;;4.81;83.30
61039;BME280;46919;45.816;3.104;2023-02-04T02:25:31;99606.38;;;4.81;83.00
61039;BME280;46919;45.816;3.104;2023-02-04T02:27:58;99604.97;;;4.77;83.48
61039;BME280;46919;45.816;3.104;2023-02-04T02:30:25;99604.25;;;4.75;83.64
61039;BME280;46919;45.816;3.104;2023-02-04T02:32:52;99606.81;;;4.77;83.42
61039;BME280;46919;45.816;3.104;2023-02-04T02:35:18;99599.59;;;4.77;83.00
61039;BME280;46919;45.816;3.104;2023-02-04T02:37:43;99600.31;;;4.79;83.05
61039;BME280;46919;45.816;3.104;2023-02-04T02:40:09;99611.19;;;4.78;83.75
61039;BME280;46919;45.816;3.104;2023-02-04T02:42:36;99599.59;;;4.77;83.50
61039;BME280;46919;45.816;3.104;2023-02-04T02:45:10;99602.41;;;4.76;83.93
61039;BME280;46919;45.816;3.104;2023-02-04T02:47:37;99601.59;;;4.75;83.59
61039;BME280;46919;45.816;3.104;2023-02-04T02:50:03;99595.94;;;4.78;83.43
61039;BME280;46919;45.816;3.104;2023-02-04T02:52:28;99599.31;;;4.80;83.39
61039;BME280;46919;45.816;3.104;2023-02-04T02:54:54;99599.75;;;4.76;83.44
61039;BME280;46919;45.816;3.104;2023-02-04T02:57:21;99596.22;;;4.75;83.14
61039;BME280;46919;45.816;3.104;2023-02-04T02:59:48;99597.06;;;4.76;82.77
61039;BME280;46919;45.816;3.104;2023-02-04T03:02:17;99587.22;;;4.76;82.99
61039;BME280;46919;45.816;3.104;2023-02-04T03:04:49;99596.22;;;4.75;82.92
61039;BME280;46919;45.816;3.104;2023-02-04T03:07:17;99590.19;;;4.73;83.13
61039;BME280;46919;45.816;3.104;2023-02-04T03:09:42;99589.31;;;4.72;83.38
61039;BME280;46919;45.816;3.104;2023-02-04T03:12:08;99582.00;;;4.75;83.22
61039;BME280;46919;45.816;3.104;2023-02-04T03:14:34;99585.22;;;4.78;83.15
61039;BME280;46919;45.816;3.104;2023-02-04T03:17:03;99582.97;;;4.74;83.62
61039;BME280;46919;45.816;3.104;2023-02-04T03:19:31;99573.38;;;4.71;84.10
61039;BME280;46919;45.816;3.104;2023-02-04T03:21:58;99573.56;;;4.69;84.24
61039;BME280;46919;45.816;3.104;2023-02-04T03:24:24;99575.38;;;4.69;84.17
61039;BME280;46919;45.816;3.104;2023-02-04T03:26:50;99575.38;;;4.69;84.21
61039;BME280;46919;45.816;3.104;2023-02-04T03:29:16;99578.94;;;4.69;84.73
61039;BME280;46919;45.816;3.104;2023-02-04T03:31:41;99580.03;;;4.67;84.97
61039;BME280;46919;45.816;3.104;2023-02-04T03:34:06;99570.03;;;4.69;84.55
61039;BME280;46919;45.816;3.104;2023-02-04T03:36:32;99578.75;;;4.71;84.68
61039;BME280;46919;45.816;3.104;2023-02-04T03:38:58;99568.91;;;4.71;84.77
61039;BME280;46919;45.816;3.104;2023-02-04T03:41:23;99571.72;;;4.70;85.13
61039;BME280;46919;45.816;3.104;2023-02-04T03:43:49;99570.03;;;4.69;85.17
61039;BME280;46919;45.816;3.104;2023-02-04T03:46:14;99576.38;;;4.68;84.93
61039;BME280;46919;45.816;3.104;2023-02-04T03:48:40;99581.03;;;4.66;85.33
61039;BME280;46919;45.816;3.104;2023-02-04T03:51:05;99584.56;;;4.66;85.19
61039;BME280;46919;45.816;3.104;2023-02-04T03:53:31;99572.31;;;4.64;85.96
61039;BME280;46919;45.816;3.104;2023-02-04T03:55:57;99573.72;;;4.68;85.40
61039;BME280;46919;45.816;3.104;2023-02-04T03:58:22;99578.75;;;4.71;85.44
61039;BME280;46919;45.816;3.104;2023-02-04T04:00:48;99573.72;;;4.68;85.77
61039;BME280;46919;45.816;3.104;2023-02-04T04:03:13;99572.84;;;4.67;86.12
61039;BME280;46919;45.816;3.104;2023-02-04T04:05:39;99575.09;;;4.72;85.67
61039;BME280;46919;45.816;3.104;2023-02-04T04:08:04;99574.41;;;4.70;85.87
61039;BME280;46919;45.816;3.104;2023-02-04T04:10:29;99572.41;;;4.72;85.84
61039;BME280;46919;45.816;3.104;2023-02-04T04:12:55;99575.94;;;4.72;85.69
61039;BME280;46919;45.816;3.104;2023-02-04T04:15:20;99570.72;;;4.71;85.80
61039;BME280;46919;45.816;3.104;2023-02-04T04:17:46;99569.72;;;4.72;86.21
61039;BME280;46919;45.816;3.104;2023-02-04T04:20:12;99572.41;;;4.72;86.41
61039;BME280;46919;45.816;3.104;2023-02-04T04:22:38;99568.03;;;4.71;86.46
61039;BME280;46919;45.816;3.104;2023-02-04T04:25:04;99575.38;;;4.69;86.35
61039;BME280;46919;45.816;3.104;2023-02-04T04:27:29;99576.25;;;4.69;86.62
61039;BME280;46919;45.816;3.104;2023-02-04T04:29:55;99581.59;;;4.69;86.55
61039;BME280;46919;45.816;3.104;2023-02-04T04:32:21;99573.84;;;4.66;86.79
61039;BME280;46919;45.816;3.104;2023-02-04T04:34:46;99578.22;;;4.67;86.82
61039;BME280;46919;45.816;3.104;2023-02-04T04:37:12;99579.34;;;4.65;86.85
61039;BME280;46919;45.816;3.104;2023-02-04T04:39:37;99586.66;;;4.63;86.97
61039;BME280;46919;45.816;3.104;2023-02-04T04:42:03;99579.94;;;4.59;86.90
61039;BME280;46919;45.816;3.104;2023-02-04T04:44:28;99592.88;;;4.53;86.90
61039;BME280;46919;45.816;3.104;2023-02-04T04:46:53;99593.75;;;4.54;87.28
61039;BME280;46919;45.816;3.104;2023-02-04T04:49:19;99591.50;;;4.49;87.15
61039;BME280;46919;45.816;3.104;2023-02-04T04:51:44;99599.97;;;4.45;86.98
61039;BME280;46919;45.816;3.104;2023-02-04T04:54:10;99600.53;;;4.39;87.52
61039;BME280;46919;45.816;3.104;2023-02-04T04:56:35;99601.66;;;4.36;87.95
61039;BME280;46919;45.816;3.104;2023-02-04T04:59:00;99601.66;;;4.36;87.63
61039;BME280;46919;45.816;3.104;2023-02-04T05:01:27;99600.69;;;4.37;87.56
61039;BME280;46919;45.816;3.104;2023-02-04T05:03:53;99599.97;;;4.35;87.55
61039;BME280;46919;45.816;3.104;2023-02-04T05:06:18;99594.91;;;4.32;87.47
61039;BME280;46919;45.816;3.104;2023-02-04T05:08:52;99599.56;;;4.30;87.83
61039;BME280;46919;45.816;3.104;2023-02-04T05:11:17;99598.84;;;4.28;87.50
61039;BME280;46919;45.816;3.104;2023-02-04T05:13:42;99600.84;;;4.26;88.01
61039;BME280;46919;45.816;3.104;2023-02-04T05:16:08;99604.94;;;4.30;88.27
61039;BME280;46919;45.816;3.104;2023-02-04T05:18:36;99599.56;;;4.30;88.24
61039;BME280;46919;45.816;3.104;2023-02-04T05:21:02;99600.53;;;4.29;88.23
61039;BME280;46919;45.816;3.104;2023-02-04T05:23:28;99602.81;;;4.24;88.44
61039;BME280;46919;45.816;3.104;2023-02-04T05:25:53;99598.72;;;4.20;88.59
61039;BME280;46919;45.816;3.104;2023-02-04T05:28:18;99601.41;;;4.20;88.71
61039;BME280;46919;45.816;3.104;2023-02-04T05:30:44;99596.03;;;4.20;88.80
61039;BME280;46919;45.816;3.104;2023-02-04T05:33:09;99604.75;;;4.22;88.85
61039;BME280;46919;45.816;3.104;2023-02-04T05:35:35;99597.75;;;4.21;88.94
61039;BME280;46919;45.816;3.104;2023-02-04T05:38:00;99600.69;;;4.17;89.29
61039;BME280;46919;45.816;3.104;2023-02-04T05:40:25;99600.69;;;4.17;89.47
61039;BME280;46919;45.816;3.104;2023-02-04T05:42:51;99606.88;;;4.18;89.54
61039;BME280;46919;45.816;3.104;2023-02-04T05:45:16;99613.22;;;4.17;90.06
61039;BME280;46919;45.816;3.104;2023-02-04T05:47:43;99612.94;;;4.20;89.09
61039;BME280;46919;45.816;3.104;2023-02-04T05:50:09;99610.41;;;4.18;89.64
61039;BME280;46919;45.816;3.104;2023-02-04T05:52:35;99620.81;;;4.22;89.99
61039;BME280;46919;45.816;3.104;2023-02-04T05:55:00;99622.53;;;4.23;89.94
61039;BME280;46919;45.816;3.104;2023-02-04T05:57:26;99628.44;;;4.26;89.74
61039;BME280;46919;45.816;3.104;2023-02-04T05:59:51;99618.16;;;4.31;89.49
61039;BME280;46919;45.816;3.104;2023-02-04T06:02:16;99621.97;;;4.29;89.52
61039;BME280;46919;45.816;3.104;2023-02-04T06:04:42;99629.00;;;4.30;90.08
61039;BME280;46919;45.816;3.104;2023-02-04T06:07:08;99630.69;;;4.31;89.97
61039;BME280;46919;45.816;3.104;2023-02-04T06:09:33;99633.50;;;4.29;89.81
61039;BME280;46919;45.816;3.104;2023-02-04T06:11:58;99634.78;;;4.25;89.93
61039;BME280;46919;45.816;3.104;2023-02-04T06:14:24;99636.88;;;4.22;90.29
61039;BME280;46919;45.816;3.104;2023-02-04T06:16:49;99628.72;;;4.23;90.23
61039;BME280;46919;45.816;3.104;2023-02-04T06:19:15;99629.84;;;4.21;90.24
61039;BME280;46919;45.816;3.104;2023-02-04T06:21:40;99635.78;;;4.14;91.22
61039;BME280;46919;45.816;3.104;2023-02-04T06:24:05;99629.00;;;4.10;90.62
61039;BME280;46919;45.816;3.104;2023-02-04T06:26:31;99630.69;;;4.11;90.87
61039;BME280;46919;45.816;3.104;2023-02-04T06:28:56;99628.84;;;4.12;91.27
61039;BME280;46919;45.816;3.104;2023-02-04T06:31:22;99630.84;;;4.10;92.00
61039;BME280;46919;45.816;3.104;2023-02-04T06:33:47;99636.06;;;4.11;92.29
61039;BME280;46919;45.816;3.104;2023-02-04T06:36:12;99635.06;;;4.12;92.14
61039;BME280;46919;45.816;3.104;2023-02-04T06:38:38;99635.06;;;4.12;92.34
61039;BME280;46919;45.816;3.104;2023-02-04T06:41:03;99644.50;;;4.16;92.80
61039;BME280;46919;45.816;3.104;2023-02-04T06:43:29;99644.63;;;4.15;92.77
61039;BME280;46919;45.816;3.104;2023-02-04T06:45:54;99657.44;;;4.11;92.92
61039;BME280;46919;45.816;3.104;2023-02-04T06:48:20;99652.09;;;4.11;93.03
61039;BME280;46919;45.816;3.104;2023-02-04T06:50:45;99659.16;;;4.12;93.11
61039;BME280;46919;45.816;3.104;2023-02-04T06:53:10;99657.19;;;4.14;93.25
61039;BME280;46919;45.816;3.104;2023-02-04T06:55:36;99660.53;;;4.07;94.18
61039;BME280;46919;45.816;3.104;2023-02-04T06:58:01;99669.81;;;3.93;95.72
61039;BME280;46919;45.816;3.104;2023-02-04T07:00:27;99671.50;;;3.84;95.97
61039;BME280;46919;45.816;3.104;2023-02-04T07:02:52;99685.41;;;3.68;96.60
61039;BME280;46919;45.816;3.104;2023-02-04T07:05:18;99683.53;;;3.59;97.55
61039;BME280;46919;45.816;3.104;2023-02-04T07:07:43;99684.66;;;3.56;97.57
61039;BME280;46919;45.816;3.104;2023-02-04T07:10:09;99682.84;;;3.57;99.27
61039;BME280;46919;45.816;3.104;2023-02-04T07:12:34;99683.53;;;3.59;99.24
61039;BME280;46919;45.816;3.104;2023-02-04T07:15:00;99689.03;;;3.57;98.80
61039;BME280;46919;45.816;3.104;2023-02-04T07:17:25;99689.69;;;3.50;99.64
61039;BME280;46919;45.816;3.104;2023-02-04T07:19:51;99693.59;;;3.45;100.00
61039;BME280;46919;45.816;3.104;2023-02-04T07:22:17;99693.59;;;3.45;100.00
61039;BME280;46919;45.816;3.104;2023-02-04T07:24:42;99690.78;;;3.47;100.00
61039;BME280;46919;45.816;3.104;2023-02-04T07:27:08;99692.63;;;3.47;100.00
61039;BME280;46919;45.816;3.104;2023-02-04T07:29:33;99695.31;;;3.47;100.00
61039;BME280;46919;45.816;3.104;2023-02-04T07:31:59;99688.84;;;3.49;100.00
61039;BME280;46919;45.816;3.104;2023-02-04T07:34:24;99688.72;;;3.51;100.00
61039;BME280;46919;45.816;3.104;2023-02-04T07:36:49;99690.84;;;3.57;100.00
61039;BME280;46919;45.816;3.104;2023-02-04T07:39:15;99688.34;;;3.65;100.00
61039;BME280;46919;45.816;3.104;2023-02-04T07:41:40;99689.88;;;3.68;100.00
61039;BME280;46919;45.816;3.104;2023-02-04T07:44:06;99688.34;;;3.65;100.00
61039;BME280;46919;45.816;3.104;2023-02-04T07:46:31;99684.66;;;3.66;100.00
61039;BME280;46919;45.816;3.104;2023-02-04T07:48:57;99675.84;;;3.75;100.00
61039;BME280;46919;45.816;3.104;2023-02-04T07:51:22;99677.97;;;3.81;100.00
61039;BME280;46919;45.816;3.104;2023-02-04T07:53:47;99678.13;;;3.90;100.00
61039;BME280;46919;45.816;3.104;2023-02-04T07:56:13;99671.38;;;3.95;100.00
61039;BME280;46919;45.816;3.104;2023-02-04T07:58:38;99676.31;;;4.00;100.00
61039;BME280;46919;45.816;3.104;2023-02-04T08:01:04;99668.72;;;4.05;100.00
61039;BME280;46919;45.816;3.104;2023-02-04T08:03:29;99659.44;;;4.09;100.00
61039;BME280;46919;45.816;3.104;2023-02-04T08:05:55;99665.75;;;4.18;100.00
61039;BME280;46919;45.816;3.104;2023-02-04T08:08:20;99668.16;;;4.31;100.00
61039;BME280;46919;45.816;3.104;2023-02-04T08:10:46;99672.38;;;4.43;100.00
61039;BME280;46919;45.816;3.104;2023-02-04T08:13:11;99682.94;;;4.54;100.00
61039;BME280;46919;45.816;3.104;2023-02-04T08:15:37;99674.63;;;4.58;100.00
61039;BME280;46919;45.816;3.104;2023-02-04T08:18:02;99678.28;;;4.57;100.00
61039;BME280;46919;45.816;3.104;2023-02-04T08:20:28;99674.34;;;4.61;100.00
61039;BME280;46919;45.816;3.104;2023-02-04T08:22:53;99676.31;;;4.68;100.00
61039;BME280;46919;45.816;3.104;2023-02-04T08:25:19;99679.97;;;4.77;100.00
61039;BME280;46919;45.816;3.104;2023-02-04T08:27:44;99677.00;;;4.80;100.00
61039;BME280;46919;45.816;3.104;2023-02-04T08:30:10;99684.31;;;4.88;100.00
61039;BME280;46919;45.816;3.104;2023-02-04T08:32:35;99682.63;;;4.97;100.00
61039;BME280;46919;45.816;3.104;2023-02-04T08:35:01;99690.78;;;5.05;100.00
61039;BME280;46919;45.816;3.104;2023-02-04T08:37:27;99698.13;;;5.03;100.00
61039;BME280;46919;45.816;3.104;2023-02-04T08:39:52;99699.38;;;4.99;100.00
61039;BME280;46919;45.816;3.104;2023-02-04T08:42:17;99702.47;;;5.04;100.00
61039;BME280;46919;45.816;3.104;2023-02-04T08:44:43;99699.66;;;5.05;100.00
61039;BME280;46919;45.816;3.104;2023-02-04T08:47:08;99706.16;;;5.03;100.00
61039;BME280;46919;45.816;3.104;2023-02-04T08:49:35;99704.28;;;5.13;100.00
61039;BME280;46919;45.816;3.104;2023-02-04T08:52:00;99708.78;;;5.22;100.00
61039;BME280;46919;45.816;3.104;2023-02-04T08:54:27;99713.84;;;5.25;100.00
61039;BME280;46919;45.816;3.104;2023-02-04T08:56:52;99720.47;;;5.21;100.00
61039;BME280;46919;45.816;3.104;2023-02-04T08:59:18;99716.53;;;5.25;100.00
61039;BME280;46919;45.816;3.104;2023-02-04T09:01:43;99711.56;;;5.31;100.00
61039;BME280;46919;45.816;3.104;2023-02-04T09:04:13;99710.31;;;5.35;100.00
61039;BME280;46919;45.816;3.104;2023-02-04T09:06:38;99714.53;;;5.28;100.00
61039;BME280;46919;45.816;3.104;2023-02-04T09:09:04;99714.25;;;5.31;100.00
61039;BME280;46919;45.816;3.104;2023-02-04T09:11:29;99715.22;;;5.39;100.00
61039;BME280;46919;45.816;3.104;2023-02-04T09:13:55;99709.44;;;5.44;100.00
61039;BME280;46919;45.816;3.104;2023-02-04T09:16:21;99710.22;;;5.54;100.00
61039;BME280;46919;45.816;3.104;2023-02-04T09:18:47;99697.91;;;5.61;100.00
61039;BME280;46919;45.816;3.104;2023-02-04T09:21:12;99685.44;;;5.70;100.00
61039;BME280;46919;45.816;3.104;2023-02-04T09:23:37;99683.72;;;5.79;100.00
61039;BME280;46919;45.816;3.104;2023-02-04T09:26:03;99682.63;;;5.90;100.00
61039;BME280;46919;45.816;3.104;2023-02-04T09:28:31;99694.75;;;6.04;100.00
61039;BME280;46919;45.816;3.104;2023-02-04T09:30:56;99689.59;;;6.10;100.00
61039;BME280;46919;45.816;3.104;2023-02-04T09:33:21;99695.69;;;6.12;100.00
61039;BME280;46919;45.816;3.104;2023-02-04T09:35:47;99700.91;;;6.14;100.00
61039;BME280;46919;45.816;3.104;2023-02-04T09:38:13;99699.28;;;6.21;100.00
61039;BME280;46919;45.816;3.104;2023-02-04T09:40:45;99707.34;;;6.21;100.00
61039;BME280;46919;45.816;3.104;2023-02-04T09:43:19;99707.09;;;6.14;100.00
61039;BME280;46919;45.816;3.104;2023-02-04T09:45:47;99698.75;;;6.18;100.00
61039;BME280;46919;45.816;3.104;2023-02-04T09:48:14;99704.03;;;6.27;100.00
61039;BME280;46919;45.816;3.104;2023-02-04T09:50:40;99701.91;;;6.31;100.00
61039;BME280;46919;45.816;3.104;2023-02-04T09:53:06;99699.47;;;6.38;100.00
61039;BME280;46919;45.816;3.104;2023-02-04T09:55:37;99703.00;;;6.38;100.00
61039;BME280;46919;45.816;3.104;2023-02-04T09:58:14;99708.59;;;6.45;100.00
61039;BME280;46919;45.816;3.104;2023-02-04T10:00:42;99703.88;;;6.47;100.00
61039;BME280;46919;45.816;3.104;2023-02-04T10:03:16;99705.91;;;6.45;100.00
61039;BME280;46919;45.816;3.104;2023-02-04T10:05:43;99708.59;;;6.45;100.00
61039;BME280;46919;45.816;3.104;2023-02-04T10:08:21;99705.06;;;6.44;100.00
61039;BME280;46919;45.816;3.104;2023-02-04T10:10:48;99708.72;;;6.43;100.00
61039;BME280;46919;45.816;3.104;2023-02-04T10:13:20;99710.75;;;6.41;100.00
61039;BME280;46919;45.816;3.104;2023-02-04T10:15:48;99714.94;;;6.44;100.00
61039;BME280;46919;45.816;3.104;2023-02-04T10:18:24;99720.00;;;6.47;100.00
61039;BME280;46919;45.816;3.104;2023-02-04T10:21:07;99715.34;;;6.49;100.00
61039;BME280;46919;45.816;3.104;2023-02-04T10:23:36;99717.56;;;6.53;100.00
61039;BME280;46919;45.816;3.104;2023-02-04T10:26:02;99724.69;;;6.63;100.00
61039;BME280;46919;45.816;3.104;2023-02-04T10:28:35;99725.91;;;6.68;100.00
61039;BME280;46919;45.816;3.104;2023-02-04T10:31:01;99725.63;;;6.71;100.00
61039;BME280;46919;45.816;3.104;2023-02-04T10:33:26;99719.25;;;6.73;100.00
61039;BME280;46919;45.816;3.104;2023-02-04T10:35:54;99722.78;;;6.73;100.00
61039;BME280;46919;45.816;3.104;2023-02-04T10:38:20;99721.28;;;6.79;100.00
61039;BME280;46919;45.816;3.104;2023-02-04T10:40:46;99718.53;;;6.88;100.00
61039;BME280;46919;45.816;3.104;2023-02-04T10:43:17;99718.06;;;6.93;100.00
61039;BME280;46919;45.816;3.104;2023-02-04T10:45:53;99722.06;;;6.89;100.00
61039;BME280;46919;45.816;3.104;2023-02-04T10:48:20;99717.69;;;6.88;100.00
61039;BME280;46919;45.816;3.104;2023-02-04T10:50:47;99713.84;;;6.91;100.00
61039;BME280;46919;45.816;3.104;2023-02-04T10:53:19;99709.03;;;7.02;100.00
61039;BME280;46919;45.816;3.104;2023-02-04T10:56:04;99706.75;;;7.07;100.00
61039;BME280;46919;45.816;3.104;2023-02-04T10:58:31;99710.53;;;7.23;100.00
61039;BME280;46919;45.816;3.104;2023-02-04T11:00:57;99698.81;;;7.32;100.00
61039;BME280;46919;45.816;3.104;2023-02-04T11:03:27;99693.47;;;7.40;100.00
61039;BME280;46919;45.816;3.104;2023-02-04T11:05:59;99695.91;;;7.52;100.00
61039;BME280;46919;45.816;3.104;2023-02-04T11:08:32;99695.19;;;7.76;100.00
61039;BME280;46919;45.816;3.104;2023-02-04T11:10:58;99692.84;;;7.89;100.00
61039;BME280;46919;45.816;3.104;2023-02-04T11:14:17;99687.72;;;8.04;100.00
61039;BME280;46919;45.816;3.104;2023-02-04T11:16:24;99691.56;;;8.10;100.00
61039;BME280;46919;45.816;3.104;2023-02-04T11:18:51;99688.25;;;8.24;100.00
61039;BME280;46919;45.816;3.104;2023-02-04T11:21:21;99679.34;;;8.40;100.00
61039;BME280;46919;45.816;3.104;2023-02-04T11:23:48;99676.47;;;8.42;100.00
61039;BME280;46919;45.816;3.104;2023-02-04T11:26:17;99676.00;;;8.46;100.00
61039;BME280;46919;45.816;3.104;2023-02-04T11:33:50;99679.03;;;8.43;99.22
61039;BME280;46919;45.816;3.104;2023-02-04T11:36:16;99674.44;;;8.35;98.74
61039;BME280;46919;45.816;3.104;2023-02-04T11:38:46;99678.34;;;8.33;98.70
61039;BME280;46919;45.816;3.104;2023-02-04T11:41:20;99676.97;;;8.29;98.02
61039;BME280;46919;45.816;3.104;2023-02-04T11:43:52;99674.94;;;8.31;98.26
61039;BME280;46919;45.816;3.104;2023-02-04T11:46:19;99667.09;;;8.54;97.96
61039;BME280;46919;45.816;3.104;2023-02-04T11:48:44;99662.88;;;8.76;97.34
61039;BME280;46919;45.816;3.104;2023-02-04T11:53:36;99657.47;;;8.93;96.24
61039;BME280;46919;45.816;3.104;2023-02-04T11:56:02;99657.47;;;9.01;96.04
61039;BME280;46919;45.816;3.104;2023-02-04T11:58:28;99657.63;;;9.07;95.90
61039;BME280;46919;45.816;3.104;2023-02-04T12:00:55;99654.06;;;9.07;95.57
61039;BME280;46919;45.816;3.104;2023-02-04T12:05:46;99655.78;;;8.92;94.44
61039;BME280;46919;45.816;3.104;2023-02-04T12:08:38;99649.38;;;8.84;93.58
61039;BME280;46919;45.816;3.104;2023-02-04T12:11:10;99650.75;;;8.88;93.62
61039;BME280;46919;45.816;3.104;2023-02-04T12:13:47;99646.69;;;8.84;93.89
61039;BME280;46919;45.816;3.104;2023-02-04T12:16:14;99648.72;;;8.91;94.04
61039;BME280;46919;45.816;3.104;2023-02-04T12:18:39;99639.81;;;8.82;94.19
61039;BME280;46919;45.816;3.104;2023-02-04T12:21:05;99645.34;;;8.97;93.68
61039;BME280;46919;45.816;3.104;2023-02-04T12:23:31;99634.88;;;9.02;93.04
61039;BME280;46919;45.816;3.104;2023-02-04T12:25:57;99633.50;;;9.14;92.51
61039;BME280;46919;45.816;3.104;2023-02-04T12:28:23;99627.94;;;9.16;91.79
61039;BME280;46919;45.816;3.104;2023-02-04T12:30:48;99624.22;;;9.09;91.64
61039;BME280;46919;45.816;3.104;2023-02-04T12:33:14;99634.34;;;9.06;92.11
61039;BME280;46919;45.816;3.104;2023-02-04T12:35:39;99626.13;;;9.00;92.38
61039;BME280;46919;45.816;3.104;2023-02-04T12:38:06;99631.03;;;8.96;92.03
61039;BME280;46919;45.816;3.104;2023-02-04T12:40:32;99628.16;;;8.98;92.43
61039;BME280;46919;45.816;3.104;2023-02-04T12:42:57;99622.03;;;9.04;92.35
61039;BME280;46919;45.816;3.104;2023-02-04T12:45:23;99626.13;;;9.00;92.47
61039;BME280;46919;45.816;3.104;2023-02-04T12:47:48;99631.19;;;8.86;93.12
61039;BME280;46919;45.816;3.104;2023-02-04T12:50:15;99627.84;;;8.68;93.24
61039;BME280;46919;45.816;3.104;2023-02-04T12:52:54;99629.88;;;8.49;93.88
61039;BME280;46919;45.816;3.104;2023-02-04T12:55:21;99627.16;;;8.33;95.14
61039;BME280;46919;45.816;3.104;2023-02-04T12:57:47;99621.44;;;8.36;95.56
61039;BME280;46919;45.816;3.104;2023-02-04T13:00:14;99619.06;;;8.33;96.22
61039;BME280;46919;45.816;3.104;2023-02-04T13:02:40;99625.13;;;8.27;96.74
61039;BME280;46919;45.816;3.104;2023-02-04T13:05:06;99623.09;;;8.12;97.43
61039;BME280;46919;45.816;3.104;2023-02-04T13:07:31;99624.09;;;8.03;98.42
61039;BME280;46919;45.816;3.104;2023-02-04T13:09:58;99617.66;;;7.96;99.57
61039;BME280;46919;45.816;3.104;2023-02-04T13:12:24;99620.22;;;8.14;99.27
61039;BME280;46919;45.816;3.104;2023-02-04T13:14:49;99612.47;;;8.35;99.80
61039;BME280;46919;45.816;3.104;2023-02-04T13:17:15;99616.06;;;8.61;99.42